sensor_id;sensor_type;location;lat;lon;timestamp;P1;durP1;ratioP1;P2;durP2;ratioP2
11348;SDS011;5729;43.570;27.826;2023-03-24T00:01:01;25.92;;;18.38;;
11348;SDS011;5729;43.570;27.826;2023-03-24T00:03:28;29.30;;;18.70;;
11348;SDS011;5729;43.570;27.826;2023-03-24T00:05:55;28.67;;;18.63;;
11348;SDS011;5729;43.570;27.826;2023-03-24T00:08:22;33.22;;;18.30;;
11348;SDS011;5729;43.570;27.826;2023-03-24T00:10:48;31.13;;;19.98;;
11348;SDS011;5729;43.570;27.826;2023-03-24T00:13:15;22.98;;;16.75;;
11348;SDS011;5729;43.570;27.826;2023-03-24T00:15:40;33.03;;;19.00;;
11348;SDS011;5729;43.570;27.826;2023-03-24T00:18:06;31.60;;;20.10;;
11348;SDS011;5729;43.570;27.826;2023-03-24T00:20:34;30.35;;;19.17;;
11348;SDS011;5729;43.570;27.826;2023-03-24T00:23:00;29.58;;;19.23;;
11348;SDS011;5729;43.570;27.826;2023-03-24T00:25:28;25.65;;;18.05;;
11348;SDS011;5729;43.570;27.826;2023-03-24T00:28:00;26.15;;;17.73;;
11348;SDS011;5729;43.570;27.826;2023-03-24T00:30:27;24.58;;;17.17;;
11348;SDS011;5729;43.570;27.826;2023-03-24T00:32:52;26.73;;;18.42;;
11348;SDS011;5729;43.570;27.826;2023-03-24T00:35:18;25.17;;;18.08;;
11348;SDS011;5729;43.570;27.826;2023-03-24T00:37:44;25.30;;;17.75;;
11348;SDS011;5729;43.570;27.826;2023-03-24T00:40:11;25.52;;;17.85;;
11348;SDS011;5729;43.570;27.826;2023-03-24T00:42:40;25.00;;;18.08;;
11348;SDS011;5729;43.570;27.826;2023-03-24T00:45:10;26.58;;;17.75;;
11348;SDS011;5729;43.570;27.826;2023-03-24T00:47:38;29.80;;;18.92;;
11348;SDS011;5729;43.570;27.826;2023-03-24T00:50:05;27.40;;;19.20;;
11348;SDS011;5729;43.570;27.826;2023-03-24T00:52:33;29.40;;;17.83;;
11348;SDS011;5729;43.570;27.826;2023-03-24T00:54:59;31.60;;;18.10;;
11348;SDS011;5729;43.570;27.826;2023-03-24T00:57:29;23.98;;;17.05;;
11348;SDS011;5729;43.570;27.826;2023-03-24T00:59:59;28.58;;;17.83;;
11348;SDS011;5729;43.570;27.826;2023-03-24T01:02:31;25.67;;;18.15;;
11348;SDS011;5729;43.570;27.826;2023-03-24T01:04:58;25.25;;;17.38;;
11348;SDS011;5729;43.570;27.826;2023-03-24T01:07:26;25.88;;;17.27;;
11348;SDS011;5729;43.570;27.826;2023-03-24T01:09:54;30.38;;;18.02;;
11348;SDS011;5729;43.570;27.826;2023-03-24T01:12:28;27.65;;;17.10;;
11348;SDS011;5729;43.570;27.826;2023-03-24T01:14:59;28.33;;;17.33;;
11348;SDS011;5729;43.570;27.826;2023-03-24T01:17:27;26.58;;;18.40;;
11348;SDS011;5729;43.570;27.826;2023-03-24T01:19:54;29.52;;;18.30;;
11348;SDS011;5729;43.570;27.826;2023-03-24T01:22:20;28.13;;;18.17;;
11348;SDS011;5729;43.570;27.826;2023-03-24T01:24:47;26.88;;;17.77;;
11348;SDS011;5729;43.570;27.826;2023-03-24T01:27:13;26.90;;;18.50;;
11348;SDS011;5729;43.570;27.826;2023-03-24T01:29:39;27.30;;;19.08;;
11348;SDS011;5729;43.570;27.826;2023-03-24T01:32:05;35.22;;;21.33;;
11348;SDS011;5729;43.570;27.826;2023-03-24T01:34:31;33.47;;;21.10;;
11348;SDS011;5729;43.570;27.826;2023-03-24T01:36:57;32.33;;;20.80;;
11348;SDS011;5729;43.570;27.826;2023-03-24T01:39:23;28.67;;;19.52;;
11348;SDS011;5729;43.570;27.826;2023-03-24T01:41:48;28.77;;;18.05;;
11348;SDS011;5729;43.570;27.826;2023-03-24T01:47:00;30.13;;;18.58;;
11348;SDS011;5729;43.570;27.826;2023-03-24T01:49:31;24.85;;;18.15;;
11348;SDS011;5729;43.570;27.826;2023-03-24T01:52:01;30.25;;;18.25;;
11348;SDS011;5729;43.570;27.826;2023-03-24T01:54:29;27.33;;;18.75;;
11348;SDS011;5729;43.570;27.826;2023-03-24T01:57:02;28.20;;;17.13;;
11348;SDS011;5729;43.570;27.826;2023-03-24T01:59:37;25.75;;;18.95;;
11348;SDS011;5729;43.570;27.826;2023-03-24T02:02:05;28.90;;;18.50;;
11348;SDS011;5729;43.570;27.826;2023-03-24T02:04:35;25.63;;;18.73;;
11348;SDS011;5729;43.570;27.826;2023-03-24T02:07:10;31.02;;;19.33;;
11348;SDS011;5729;43.570;27.826;2023-03-24T02:09:42;29.95;;;18.33;;
11348;SDS011;5729;43.570;27.826;2023-03-24T02:12:08;25.48;;;18.05;;
11348;SDS011;5729;43.570;27.826;2023-03-24T02:14:34;29.88;;;19.42;;
11348;SDS011;5729;43.570;27.826;2023-03-24T02:36:54;32.80;;;22.03;;
11348;SDS011;5729;43.570;27.826;2023-03-24T02:56:25;33.17;;;20.27;;
11348;SDS011;5729;43.570;27.826;2023-03-24T02:58:58;29.95;;;19.13;;
11348;SDS011;5729;43.570;27.826;2023-03-24T03:04:18;34.40;;;21.87;;
11348;SDS011;5729;43.570;27.826;2023-03-24T03:06:50;35.40;;;21.73;;
11348;SDS011;5729;43.570;27.826;2023-03-24T03:09:20;31.57;;;20.97;;
11348;SDS011;5729;43.570;27.826;2023-03-24T03:11:48;29.90;;;19.90;;
11348;SDS011;5729;43.570;27.826;2023-03-24T03:14:38;26.37;;;17.60;;
11348;SDS011;5729;43.570;27.826;2023-03-24T03:17:15;30.13;;;19.43;;
11348;SDS011;5729;43.570;27.826;2023-03-24T03:19:48;30.33;;;18.53;;
11348;SDS011;5729;43.570;27.826;2023-03-24T03:22:27;31.57;;;19.10;;
11348;SDS011;5729;43.570;27.826;2023-03-24T03:24:57;28.05;;;18.25;;
11348;SDS011;5729;43.570;27.826;2023-03-24T03:27:31;27.63;;;19.77;;
11348;SDS011;5729;43.570;27.826;2023-03-24T03:30:16;29.23;;;18.93;;
11348;SDS011;5729;43.570;27.826;2023-03-24T03:32:51;29.00;;;18.73;;
11348;SDS011;5729;43.570;27.826;2023-03-24T03:40:48;27.33;;;17.92;;
11348;SDS011;5729;43.570;27.826;2023-03-24T03:43:16;32.08;;;19.73;;
11348;SDS011;5729;43.570;27.826;2023-03-24T03:45:42;30.77;;;19.50;;
11348;SDS011;5729;43.570;27.826;2023-03-24T03:48:08;28.35;;;19.83;;
11348;SDS011;5729;43.570;27.826;2023-03-24T03:50:35;27.23;;;19.00;;
11348;SDS011;5729;43.570;27.826;2023-03-24T03:53:02;34.35;;;19.13;;
11348;SDS011;5729;43.570;27.826;2023-03-24T03:55:28;28.03;;;18.27;;
11348;SDS011;5729;43.570;27.826;2023-03-24T03:57:55;27.65;;;18.70;;
11348;SDS011;5729;43.570;27.826;2023-03-24T04:00:20;31.65;;;19.50;;
11348;SDS011;5729;43.570;27.826;2023-03-24T04:06:08;26.57;;;18.33;;
11348;SDS011;5729;43.570;27.826;2023-03-24T04:08:56;30.63;;;19.13;;
11348;SDS011;5729;43.570;27.826;2023-03-24T04:17:24;31.23;;;21.20;;
11348;SDS011;5729;43.570;27.826;2023-03-24T04:20:44;35.83;;;21.70;;
11348;SDS011;5729;43.570;27.826;2023-03-24T04:26:26;40.63;;;26.38;;
11348;SDS011;5729;43.570;27.826;2023-03-24T04:32:09;30.40;;;20.08;;
11348;SDS011;5729;43.570;27.826;2023-03-24T04:34:45;37.53;;;22.60;;
11348;SDS011;5729;43.570;27.826;2023-03-24T04:37:18;42.28;;;26.17;;
11348;SDS011;5729;43.570;27.826;2023-03-24T04:39:48;39.47;;;23.95;;
11348;SDS011;5729;43.570;27.826;2023-03-24T04:42:22;40.03;;;24.33;;
11348;SDS011;5729;43.570;27.826;2023-03-24T04:44:51;32.65;;;24.77;;
11348;SDS011;5729;43.570;27.826;2023-03-24T04:47:21;37.85;;;25.25;;
11348;SDS011;5729;43.570;27.826;2023-03-24T04:49:50;37.83;;;24.33;;
11348;SDS011;5729;43.570;27.826;2023-03-24T04:52:15;36.30;;;23.70;;
11348;SDS011;5729;43.570;27.826;2023-03-24T04:54:41;37.97;;;23.40;;
11348;SDS011;5729;43.570;27.826;2023-03-24T04:57:06;38.83;;;22.80;;
11348;SDS011;5729;43.570;27.826;2023-03-24T04:59:32;39.05;;;23.13;;
11348;SDS011;5729;43.570;27.826;2023-03-24T05:02:01;28.38;;;18.58;;
11348;SDS011;5729;43.570;27.826;2023-03-24T05:04:27;35.00;;;21.67;;
11348;SDS011;5729;43.570;27.826;2023-03-24T05:06:53;30.65;;;19.65;;
11348;SDS011;5729;43.570;27.826;2023-03-24T05:09:20;31.92;;;20.48;;
11348;SDS011;5729;43.570;27.826;2023-03-24T05:11:47;34.42;;;21.60;;
11348;SDS011;5729;43.570;27.826;2023-03-24T05:14:13;41.35;;;21.02;;
11348;SDS011;5729;43.570;27.826;2023-03-24T05:16:39;42.28;;;22.80;;
11348;SDS011;5729;43.570;27.826;2023-03-24T05:19:05;42.70;;;23.02;;
11348;SDS011;5729;43.570;27.826;2023-03-24T05:21:31;47.85;;;29.05;;
11348;SDS011;5729;43.570;27.826;2023-03-24T05:23:57;49.45;;;28.85;;
11348;SDS011;5729;43.570;27.826;2023-03-24T05:26:23;52.22;;;29.35;;
11348;SDS011;5729;43.570;27.826;2023-03-24T05:28:50;55.03;;;31.85;;
11348;SDS011;5729;43.570;27.826;2023-03-24T05:31:16;58.15;;;31.15;;
11348;SDS011;5729;43.570;27.826;2023-03-24T05:33:41;62.00;;;30.77;;
11348;SDS011;5729;43.570;27.826;2023-03-24T05:36:07;61.10;;;32.85;;
11348;SDS011;5729;43.570;27.826;2023-03-24T05:38:33;62.25;;;33.42;;
11348;SDS011;5729;43.570;27.826;2023-03-24T05:40:58;55.03;;;33.08;;
11348;SDS011;5729;43.570;27.826;2023-03-24T05:43:25;62.78;;;34.70;;
11348;SDS011;5729;43.570;27.826;2023-03-24T05:45:51;51.92;;;30.85;;
11348;SDS011;5729;43.570;27.826;2023-03-24T05:48:17;54.42;;;30.20;;
11348;SDS011;5729;43.570;27.826;2023-03-24T05:50:42;60.33;;;32.03;;
11348;SDS011;5729;43.570;27.826;2023-03-24T05:53:08;35.28;;;19.15;;
11348;SDS011;5729;43.570;27.826;2023-03-24T05:55:34;28.52;;;20.63;;
11348;SDS011;5729;43.570;27.826;2023-03-24T05:58:00;33.78;;;23.00;;
11348;SDS011;5729;43.570;27.826;2023-03-24T06:00:29;31.00;;;20.88;;
11348;SDS011;5729;43.570;27.826;2023-03-24T06:02:56;33.17;;;22.05;;
11348;SDS011;5729;43.570;27.826;2023-03-24T06:05:22;30.88;;;20.77;;
11348;SDS011;5729;43.570;27.826;2023-03-24T06:07:48;31.55;;;19.45;;
11348;SDS011;5729;43.570;27.826;2023-03-24T06:10:13;42.88;;;25.10;;
11348;SDS011;5729;43.570;27.826;2023-03-24T06:12:42;32.78;;;21.65;;
11348;SDS011;5729;43.570;27.826;2023-03-24T06:15:09;32.22;;;20.92;;
11348;SDS011;5729;43.570;27.826;2023-03-24T06:17:35;34.40;;;20.98;;
11348;SDS011;5729;43.570;27.826;2023-03-24T06:20:01;30.65;;;20.52;;
11348;SDS011;5729;43.570;27.826;2023-03-24T06:22:37;27.90;;;20.05;;
11348;SDS011;5729;43.570;27.826;2023-03-24T06:25:03;30.48;;;22.52;;
11348;SDS011;5729;43.570;27.826;2023-03-24T06:27:29;31.80;;;22.15;;
11348;SDS011;5729;43.570;27.826;2023-03-24T06:29:55;33.63;;;20.52;;
11348;SDS011;5729;43.570;27.826;2023-03-24T06:32:21;28.77;;;20.50;;
11348;SDS011;5729;43.570;27.826;2023-03-24T06:34:47;27.50;;;18.23;;
11348;SDS011;5729;43.570;27.826;2023-03-24T06:37:13;24.92;;;18.65;;
11348;SDS011;5729;43.570;27.826;2023-03-24T06:39:38;30.13;;;19.20;;
11348;SDS011;5729;43.570;27.826;2023-03-24T06:42:04;25.98;;;19.02;;
11348;SDS011;5729;43.570;27.826;2023-03-24T06:44:30;25.92;;;19.35;;
11348;SDS011;5729;43.570;27.826;2023-03-24T06:46:55;23.45;;;17.90;;
11348;SDS011;5729;43.570;27.826;2023-03-24T06:49:21;27.88;;;19.85;;
11348;SDS011;5729;43.570;27.826;2023-03-24T06:51:46;25.48;;;17.25;;
11348;SDS011;5729;43.570;27.826;2023-03-24T06:54:12;24.92;;;17.83;;
11348;SDS011;5729;43.570;27.826;2023-03-24T06:56:37;27.30;;;17.58;;
11348;SDS011;5729;43.570;27.826;2023-03-24T06:59:03;30.35;;;18.35;;
11348;SDS011;5729;43.570;27.826;2023-03-24T07:01:29;26.27;;;17.70;;
11348;SDS011;5729;43.570;27.826;2023-03-24T07:03:54;26.30;;;18.17;;
11348;SDS011;5729;43.570;27.826;2023-03-24T07:06:20;21.85;;;16.35;;
11348;SDS011;5729;43.570;27.826;2023-03-24T07:08:47;23.70;;;17.23;;
11348;SDS011;5729;43.570;27.826;2023-03-24T07:11:13;20.95;;;15.48;;
11348;SDS011;5729;43.570;27.826;2023-03-24T07:13:39;20.55;;;16.17;;
11348;SDS011;5729;43.570;27.826;2023-03-24T07:16:05;20.10;;;15.55;;
11348;SDS011;5729;43.570;27.826;2023-03-24T07:18:31;23.25;;;15.98;;
11348;SDS011;5729;43.570;27.826;2023-03-24T07:20:56;19.90;;;14.90;;
11348;SDS011;5729;43.570;27.826;2023-03-24T07:23:22;31.30;;;14.57;;
11348;SDS011;5729;43.570;27.826;2023-03-24T07:25:49;20.77;;;15.45;;
11348;SDS011;5729;43.570;27.826;2023-03-24T07:28:15;21.45;;;15.27;;
11348;SDS011;5729;43.570;27.826;2023-03-24T07:30:40;22.60;;;13.43;;
11348;SDS011;5729;43.570;27.826;2023-03-24T07:33:06;17.50;;;14.82;;
11348;SDS011;5729;43.570;27.826;2023-03-24T07:35:36;17.65;;;13.70;;
11348;SDS011;5729;43.570;27.826;2023-03-24T07:38:02;17.70;;;14.07;;
11348;SDS011;5729;43.570;27.826;2023-03-24T07:40:27;22.73;;;14.27;;
11348;SDS011;5729;43.570;27.826;2023-03-24T07:42:54;17.50;;;13.57;;
11348;SDS011;5729;43.570;27.826;2023-03-24T07:45:24;21.15;;;14.27;;
11348;SDS011;5729;43.570;27.826;2023-03-24T07:47:51;16.17;;;12.68;;
11348;SDS011;5729;43.570;27.826;2023-03-24T07:50:16;17.30;;;12.98;;
11348;SDS011;5729;43.570;27.826;2023-03-24T07:52:45;17.80;;;12.70;;
11348;SDS011;5729;43.570;27.826;2023-03-24T07:55:12;23.90;;;13.05;;
11348;SDS011;5729;43.570;27.826;2023-03-24T07:57:44;16.17;;;12.40;;
11348;SDS011;5729;43.570;27.826;2023-03-24T08:00:11;19.50;;;12.63;;
11348;SDS011;5729;43.570;27.826;2023-03-24T08:02:57;25.70;;;12.02;;
11348;SDS011;5729;43.570;27.826;2023-03-24T08:05:24;17.00;;;11.85;;
11348;SDS011;5729;43.570;27.826;2023-03-24T08:07:53;20.70;;;10.82;;
11348;SDS011;5729;43.570;27.826;2023-03-24T08:10:23;15.95;;;10.90;;
11348;SDS011;5729;43.570;27.826;2023-03-24T08:12:51;15.43;;;12.65;;
11348;SDS011;5729;43.570;27.826;2023-03-24T08:15:17;16.25;;;12.35;;
11348;SDS011;5729;43.570;27.826;2023-03-24T08:17:42;17.05;;;12.68;;
11348;SDS011;5729;43.570;27.826;2023-03-24T08:20:09;16.70;;;10.80;;
11348;SDS011;5729;43.570;27.826;2023-03-24T08:22:43;15.40;;;11.55;;
11348;SDS011;5729;43.570;27.826;2023-03-24T08:25:13;20.88;;;14.15;;
11348;SDS011;5729;43.570;27.826;2023-03-24T08:27:41;15.95;;;11.43;;
11348;SDS011;5729;43.570;27.826;2023-03-24T08:30:09;16.42;;;10.30;;
11348;SDS011;5729;43.570;27.826;2023-03-24T08:32:42;11.48;;;9.05;;
11348;SDS011;5729;43.570;27.826;2023-03-24T08:35:10;13.52;;;10.73;;
11348;SDS011;5729;43.570;27.826;2023-03-24T08:37:38;17.58;;;9.77;;
11348;SDS011;5729;43.570;27.826;2023-03-24T08:40:07;23.85;;;10.93;;
11348;SDS011;5729;43.570;27.826;2023-03-24T08:42:38;14.02;;;9.98;;
11348;SDS011;5729;43.570;27.826;2023-03-24T08:45:07;12.57;;;8.82;;
11348;SDS011;5729;43.570;27.826;2023-03-24T08:47:35;15.93;;;11.30;;
11348;SDS011;5729;43.570;27.826;2023-03-24T08:50:00;20.15;;;14.63;;
11348;SDS011;5729;43.570;27.826;2023-03-24T08:52:26;17.63;;;11.40;;
11348;SDS011;5729;43.570;27.826;2023-03-24T08:54:51;11.70;;;9.90;;
11348;SDS011;5729;43.570;27.826;2023-03-24T08:57:17;16.33;;;10.27;;
11348;SDS011;5729;43.570;27.826;2023-03-24T08:59:42;10.50;;;9.35;;
11348;SDS011;5729;43.570;27.826;2023-03-24T09:02:10;31.70;;;25.65;;
11348;SDS011;5729;43.570;27.826;2023-03-24T09:04:36;12.40;;;10.07;;
11348;SDS011;5729;43.570;27.826;2023-03-24T09:07:02;13.18;;;11.43;;
11348;SDS011;5729;43.570;27.826;2023-03-24T09:09:28;10.45;;;9.25;;
11348;SDS011;5729;43.570;27.826;2023-03-24T09:11:54;13.38;;;9.77;;
11348;SDS011;5729;43.570;27.826;2023-03-24T09:14:21;12.93;;;9.63;;
11348;SDS011;5729;43.570;27.826;2023-03-24T09:16:47;13.02;;;11.68;;
11348;SDS011;5729;43.570;27.826;2023-03-24T09:19:14;11.88;;;9.80;;
11348;SDS011;5729;43.570;27.826;2023-03-24T09:21:42;12.85;;;11.07;;
11348;SDS011;5729;43.570;27.826;2023-03-24T09:24:10;12.02;;;10.63;;
11348;SDS011;5729;43.570;27.826;2023-03-24T09:26:35;12.13;;;9.90;;
11348;SDS011;5729;43.570;27.826;2023-03-24T09:29:01;14.32;;;9.93;;
11348;SDS011;5729;43.570;27.826;2023-03-24T09:31:27;11.80;;;9.30;;
11348;SDS011;5729;43.570;27.826;2023-03-24T09:33:52;14.02;;;9.25;;
11348;SDS011;5729;43.570;27.826;2023-03-24T09:36:18;13.98;;;9.27;;
11348;SDS011;5729;43.570;27.826;2023-03-24T09:38:44;17.85;;;10.73;;
11348;SDS011;5729;43.570;27.826;2023-03-24T09:41:13;23.33;;;10.35;;
11348;SDS011;5729;43.570;27.826;2023-03-24T09:43:50;14.38;;;9.20;;
11348;SDS011;5729;43.570;27.826;2023-03-24T09:46:40;18.05;;;10.57;;
11348;SDS011;5729;43.570;27.826;2023-03-24T09:49:14;13.85;;;9.32;;
11348;SDS011;5729;43.570;27.826;2023-03-24T09:51:47;17.63;;;10.10;;
11348;SDS011;5729;43.570;27.826;2023-03-24T09:57:35;12.07;;;10.18;;
11348;SDS011;5729;43.570;27.826;2023-03-24T10:00:16;20.23;;;10.35;;
11348;SDS011;5729;43.570;27.826;2023-03-24T10:02:42;18.85;;;10.43;;
11348;SDS011;5729;43.570;27.826;2023-03-24T10:05:11;19.30;;;10.77;;
11348;SDS011;5729;43.570;27.826;2023-03-24T10:07:49;18.23;;;9.07;;
11348;SDS011;5729;43.570;27.826;2023-03-24T10:10:32;13.38;;;9.25;;
11348;SDS011;5729;43.570;27.826;2023-03-24T10:13:06;15.55;;;10.27;;
11348;SDS011;5729;43.570;27.826;2023-03-24T10:15:46;32.67;;;10.82;;
11348;SDS011;5729;43.570;27.826;2023-03-24T10:18:22;15.95;;;10.50;;
11348;SDS011;5729;43.570;27.826;2023-03-24T10:20:59;13.93;;;10.02;;
11348;SDS011;5729;43.570;27.826;2023-03-24T10:23:39;21.08;;;10.30;;
11348;SDS011;5729;43.570;27.826;2023-03-24T10:26:23;16.17;;;10.50;;
11348;SDS011;5729;43.570;27.826;2023-03-24T10:29:30;25.40;;;10.05;;
11348;SDS011;5729;43.570;27.826;2023-03-24T10:32:11;15.15;;;9.68;;
11348;SDS011;5729;43.570;27.826;2023-03-24T10:34:38;14.40;;;10.05;;
11348;SDS011;5729;43.570;27.826;2023-03-24T10:37:07;17.30;;;11.88;;
11348;SDS011;5729;43.570;27.826;2023-03-24T10:39:35;17.60;;;13.02;;
11348;SDS011;5729;43.570;27.826;2023-03-24T10:42:00;16.15;;;10.95;;
11348;SDS011;5729;43.570;27.826;2023-03-24T10:44:26;16.52;;;10.68;;
11348;SDS011;5729;43.570;27.826;2023-03-24T10:46:54;11.27;;;10.18;;
11348;SDS011;5729;43.570;27.826;2023-03-24T10:49:22;13.73;;;10.63;;
11348;SDS011;5729;43.570;27.826;2023-03-24T10:51:49;10.90;;;8.82;;
11348;SDS011;5729;43.570;27.826;2023-03-24T10:59:34;13.18;;;10.00;;
11348;SDS011;5729;43.570;27.826;2023-03-24T11:02:08;15.50;;;11.38;;
11348;SDS011;5729;43.570;27.826;2023-03-24T11:04:36;14.43;;;11.65;;
11348;SDS011;5729;43.570;27.826;2023-03-24T11:07:11;17.17;;;11.25;;
11348;SDS011;5729;43.570;27.826;2023-03-24T11:09:41;12.57;;;10.15;;
11348;SDS011;5729;43.570;27.826;2023-03-24T11:12:27;14.90;;;10.48;;
11348;SDS011;5729;43.570;27.826;2023-03-24T11:15:02;14.32;;;9.15;;
11348;SDS011;5729;43.570;27.826;2023-03-24T11:17:44;17.25;;;10.88;;
11348;SDS011;5729;43.570;27.826;2023-03-24T11:20:18;13.32;;;10.07;;
11348;SDS011;5729;43.570;27.826;2023-03-24T11:23:24;14.93;;;10.65;;
11348;SDS011;5729;43.570;27.826;2023-03-24T11:31:27;11.70;;;9.82;;
11348;SDS011;5729;43.570;27.826;2023-03-24T11:36:53;11.18;;;9.75;;
11348;SDS011;5729;43.570;27.826;2023-03-24T11:39:23;13.43;;;9.75;;
11348;SDS011;5729;43.570;27.826;2023-03-24T11:47:26;16.38;;;9.35;;
11348;SDS011;5729;43.570;27.826;2023-03-24T11:52:35;18.00;;;10.43;;
11348;SDS011;5729;43.570;27.826;2023-03-24T12:00:31;14.45;;;10.18;;
11348;SDS011;5729;43.570;27.826;2023-03-24T12:08:18;11.45;;;10.13;;
11348;SDS011;5729;43.570;27.826;2023-03-24T12:13:39;12.18;;;10.05;;
11348;SDS011;5729;43.570;27.826;2023-03-24T12:26:53;10.45;;;8.85;;
11348;SDS011;5729;43.570;27.826;2023-03-24T12:32:28;9.90;;;8.65;;
11348;SDS011;5729;43.570;27.826;2023-03-24T12:38:05;11.32;;;8.88;;
11348;SDS011;5729;43.570;27.826;2023-03-24T12:43:30;10.85;;;8.65;;
11348;SDS011;5729;43.570;27.826;2023-03-24T12:45:58;9.65;;;8.32;;
11348;SDS011;5729;43.570;27.826;2023-03-24T12:54:03;20.33;;;11.10;;
11348;SDS011;5729;43.570;27.826;2023-03-24T12:56:41;19.98;;;11.23;;
11348;SDS011;5729;43.570;27.826;2023-03-24T12:59:14;11.90;;;8.98;;
11348;SDS011;5729;43.570;27.826;2023-03-24T13:04:40;12.55;;;9.40;;
11348;SDS011;5729;43.570;27.826;2023-03-24T13:07:11;13.77;;;9.63;;
11348;SDS011;5729;43.570;27.826;2023-03-24T13:09:42;16.98;;;11.68;;
11348;SDS011;5729;43.570;27.826;2023-03-24T13:20:23;11.55;;;9.35;;
11348;SDS011;5729;43.570;27.826;2023-03-24T13:22:52;15.65;;;9.27;;
11348;SDS011;5729;43.570;27.826;2023-03-24T13:27:54;13.20;;;10.40;;
11348;SDS011;5729;43.570;27.826;2023-03-24T13:33:01;14.77;;;9.65;;
11348;SDS011;5729;43.570;27.826;2023-03-24T13:35:39;17.98;;;10.20;;
11348;SDS011;5729;43.570;27.826;2023-03-24T13:39:10;15.70;;;8.55;;
11348;SDS011;5729;43.570;27.826;2023-03-24T13:41:33;19.50;;;12.45;;
11348;SDS011;5729;43.570;27.826;2023-03-24T13:44:05;15.43;;;11.57;;
11348;SDS011;5729;43.570;27.826;2023-03-24T13:46:37;16.48;;;11.75;;
11348;SDS011;5729;43.570;27.826;2023-03-24T13:49:05;13.68;;;9.38;;
11348;SDS011;5729;43.570;27.826;2023-03-24T13:51:36;12.48;;;7.95;;
11348;SDS011;5729;43.570;27.826;2023-03-24T13:56:52;15.65;;;8.90;;
11348;SDS011;5729;43.570;27.826;2023-03-24T14:17:54;13.05;;;7.97;;
11348;SDS011;5729;43.570;27.826;2023-03-24T14:20:31;11.07;;;8.02;;
11348;SDS011;5729;43.570;27.826;2023-03-24T14:22:59;10.85;;;7.22;;
11348;SDS011;5729;43.570;27.826;2023-03-24T14:25:28;11.30;;;7.18;;
11348;SDS011;5729;43.570;27.826;2023-03-24T14:28:06;9.43;;;7.40;;
11348;SDS011;5729;43.570;27.826;2023-03-24T14:30:33;15.32;;;7.80;;
11348;SDS011;5729;43.570;27.826;2023-03-24T14:33:02;19.95;;;8.48;;
11348;SDS011;5729;43.570;27.826;2023-03-24T14:35:30;18.10;;;8.07;;
11348;SDS011;5729;43.570;27.826;2023-03-24T14:38:20;10.20;;;7.88;;
11348;SDS011;5729;43.570;27.826;2023-03-24T14:40:48;11.50;;;7.25;;
11348;SDS011;5729;43.570;27.826;2023-03-24T14:46:00;9.40;;;7.00;;
11348;SDS011;5729;43.570;27.826;2023-03-24T14:51:02;11.05;;;6.97;;
11348;SDS011;5729;43.570;27.826;2023-03-24T14:53:49;11.80;;;8.10;;
11348;SDS011;5729;43.570;27.826;2023-03-24T14:56:15;9.52;;;6.38;;
11348;SDS011;5729;43.570;27.826;2023-03-24T14:58:45;11.55;;;7.32;;
11348;SDS011;5729;43.570;27.826;2023-03-24T15:01:14;11.07;;;7.80;;
11348;SDS011;5729;43.570;27.826;2023-03-24T15:04:00;10.88;;;6.78;;
11348;SDS011;5729;43.570;27.826;2023-03-24T15:06:30;7.63;;;6.68;;
11348;SDS011;5729;43.570;27.826;2023-03-24T15:08:57;13.90;;;7.43;;
11348;SDS011;5729;43.570;27.826;2023-03-24T15:11:30;15.23;;;7.90;;
11348;SDS011;5729;43.570;27.826;2023-03-24T15:13:59;11.13;;;7.50;;
11348;SDS011;5729;43.570;27.826;2023-03-24T15:16:30;28.27;;;8.23;;
11348;SDS011;5729;43.570;27.826;2023-03-24T15:18:58;8.48;;;6.55;;
11348;SDS011;5729;43.570;27.826;2023-03-24T15:21:32;10.60;;;6.93;;
11348;SDS011;5729;43.570;27.826;2023-03-24T15:24:15;9.25;;;6.85;;
11348;SDS011;5729;43.570;27.826;2023-03-24T15:27:33;13.40;;;7.00;;
11348;SDS011;5729;43.570;27.826;2023-03-24T15:29:45;8.18;;;6.85;;
11348;SDS011;5729;43.570;27.826;2023-03-24T15:32:20;8.85;;;6.28;;
11348;SDS011;5729;43.570;27.826;2023-03-24T15:34:49;11.00;;;7.28;;
11348;SDS011;5729;43.570;27.826;2023-03-24T15:37:20;10.48;;;6.70;;
11348;SDS011;5729;43.570;27.826;2023-03-24T15:39:55;10.38;;;7.05;;
11348;SDS011;5729;43.570;27.826;2023-03-24T15:42:21;9.85;;;7.45;;
11348;SDS011;5729;43.570;27.826;2023-03-24T15:44:48;13.75;;;7.18;;
11348;SDS011;5729;43.570;27.826;2023-03-24T15:49:57;12.13;;;7.63;;
11348;SDS011;5729;43.570;27.826;2023-03-24T15:52:33;11.63;;;7.25;;
11348;SDS011;5729;43.570;27.826;2023-03-24T15:58:01;13.15;;;7.40;;
11348;SDS011;5729;43.570;27.826;2023-03-24T16:00:44;23.40;;;8.13;;
11348;SDS011;5729;43.570;27.826;2023-03-24T16:03:10;11.30;;;6.53;;
11348;SDS011;5729;43.570;27.826;2023-03-24T16:05:48;9.63;;;6.95;;
11348;SDS011;5729;43.570;27.826;2023-03-24T16:10:59;18.08;;;7.57;;
11348;SDS011;5729;43.570;27.826;2023-03-24T16:13:35;13.52;;;8.00;;
11348;SDS011;5729;43.570;27.826;2023-03-24T16:18:39;13.18;;;8.57;;
11348;SDS011;5729;43.570;27.826;2023-03-24T16:21:15;15.43;;;7.53;;
11348;SDS011;5729;43.570;27.826;2023-03-24T16:23:43;12.60;;;7.32;;
11348;SDS011;5729;43.570;27.826;2023-03-24T16:26:13;9.15;;;7.18;;
11348;SDS011;5729;43.570;27.826;2023-03-24T16:28:46;12.98;;;8.00;;
11348;SDS011;5729;43.570;27.826;2023-03-24T16:31:30;9.48;;;7.38;;
11348;SDS011;5729;43.570;27.826;2023-03-24T16:33:59;16.60;;;9.40;;
11348;SDS011;5729;43.570;27.826;2023-03-24T16:36:24;18.17;;;12.77;;
11348;SDS011;5729;43.570;27.826;2023-03-24T16:38:51;13.75;;;10.02;;
11348;SDS011;5729;43.570;27.826;2023-03-24T16:41:17;16.98;;;10.57;;
11348;SDS011;5729;43.570;27.826;2023-03-24T16:43:43;14.00;;;8.48;;
11348;SDS011;5729;43.570;27.826;2023-03-24T16:46:17;9.52;;;7.68;;
11348;SDS011;5729;43.570;27.826;2023-03-24T16:48:54;11.95;;;9.23;;
11348;SDS011;5729;43.570;27.826;2023-03-24T16:51:20;10.38;;;7.55;;
11348;SDS011;5729;43.570;27.826;2023-03-24T16:53:46;13.55;;;8.23;;
11348;SDS011;5729;43.570;27.826;2023-03-24T16:56:12;10.30;;;7.50;;
11348;SDS011;5729;43.570;27.826;2023-03-24T16:58:40;14.95;;;7.78;;
11348;SDS011;5729;43.570;27.826;2023-03-24T17:01:16;13.32;;;8.30;;
11348;SDS011;5729;43.570;27.826;2023-03-24T17:04:01;19.33;;;16.48;;
11348;SDS011;5729;43.570;27.826;2023-03-24T17:06:30;18.73;;;8.30;;
11348;SDS011;5729;43.570;27.826;2023-03-24T17:08:56;19.73;;;9.82;;
11348;SDS011;5729;43.570;27.826;2023-03-24T17:11:25;24.23;;;12.55;;
11348;SDS011;5729;43.570;27.826;2023-03-24T17:13:53;24.98;;;13.45;;
11348;SDS011;5729;43.570;27.826;2023-03-24T17:16:21;15.38;;;8.38;;
11348;SDS011;5729;43.570;27.826;2023-03-24T17:18:46;13.30;;;7.70;;
11348;SDS011;5729;43.570;27.826;2023-03-24T17:21:12;9.38;;;7.85;;
11348;SDS011;5729;43.570;27.826;2023-03-24T17:23:42;8.60;;;6.65;;
11348;SDS011;5729;43.570;27.826;2023-03-24T17:26:10;9.88;;;7.47;;
11348;SDS011;5729;43.570;27.826;2023-03-24T17:28:36;12.20;;;7.45;;
11348;SDS011;5729;43.570;27.826;2023-03-24T17:31:01;9.63;;;6.30;;
11348;SDS011;5729;43.570;27.826;2023-03-24T17:33:27;8.77;;;7.07;;
11348;SDS011;5729;43.570;27.826;2023-03-24T17:35:53;10.70;;;7.25;;
11348;SDS011;5729;43.570;27.826;2023-03-24T17:38:19;12.43;;;7.40;;
11348;SDS011;5729;43.570;27.826;2023-03-24T17:40:44;12.98;;;6.93;;
11348;SDS011;5729;43.570;27.826;2023-03-24T17:43:11;10.43;;;6.93;;